Geetbets, Belgium
Current Conditions -  °F | °C
As of 9:37 AM on Monday 26 Jan 2015 (Local Time) from EBDT Reporting Station
Overcast Overcast  
Wind Chill: 34°   Ceiling: 200
Heat Index: 39°   Visibility: 2.1mi
Dew Point: 39°   Wind: 7mph
Humidity: 100%   Direction: 200°SSW
Pressure: 30.15"   Gusts: NA
Location:  50.89°N, 5.11°E
Report Text: EBDT 260837Z 20006KT 3500 FEW001 OVC002 04/04 Q1021 BLACKAMB YLO TEMPO AMB
Loading
Personal Weather Stations






























Interactive Weather Map New forecast layout! Learn more

10-Day Weather Forecast

Advertisements
Track Severe Weather on mobile